Missoula, Montana
Current Conditions -  °F | °C
As of 12:53 PM on Monday 24 Nov 2014 (Local Time) from KMSO Reporting Station
Overcast Overcast  
Wind Chill: 32°   Ceiling: 4800
Heat Index: 41°   Visibility: 10mi
Dew Point: 25°   Wind: 17mph
Humidity: 53%   Direction: 270°W
Pressure: 30.32"   Gusts: NA
Location:  46.87°N, 113.99°W
Report Text: KMSO 241953Z 27015KT 10SM BKN048 OVC055 05/M04 A3032 RMK AO2 SLP289 T00501039
Loading
Personal Weather Stations






























Interactive Weather Map New forecast layout! Learn more

10-Day Weather Forecast

Advertisements
Track Severe Weather on mobile